createdAt,value
2022-10-26T00:01:08.549Z,9.48
2022-10-26T00:03:36.247Z,9.52
2022-10-26T00:06:09.291Z,9.80
2022-10-26T00:08:36.480Z,9.32
2022-10-26T00:11:03.661Z,9.73
2022-10-26T00:13:30.429Z,9.85
2022-10-26T00:15:57.467Z,10.05
2022-10-26T00:18:24.285Z,10.13
2022-10-26T00:20:51.622Z,9.57
2022-10-26T00:23:18.451Z,10.32
2022-10-26T00:25:45.452Z,8.32
2022-10-26T00:28:12.240Z,9.60
2022-10-26T00:30:40.250Z,9.52
2022-10-26T00:33:10.169Z,9.18
2022-10-26T00:35:45.441Z,8.48
2022-10-26T00:38:13.501Z,8.43
2022-10-26T00:40:40.497Z,9.65
2022-10-26T00:43:34.533Z,8.55
2022-10-26T00:46:03.009Z,9.05
2022-10-26T00:48:35.308Z,9.05
2022-10-26T00:51:26.003Z,9.00
2022-10-26T00:53:53.545Z,8.90
2022-10-26T00:56:20.732Z,9.63
2022-10-26T00:58:47.837Z,9.20
2022-10-26T01:01:14.855Z,9.20
2022-10-26T01:03:42.867Z,8.85
2022-10-26T01:06:11.564Z,10.13
2022-10-26T01:08:38.926Z,10.23
2022-10-26T01:11:06.044Z,9.52
2022-10-26T01:13:35.953Z,9.45
2022-10-26T01:16:16.248Z,9.23
2022-10-26T01:18:42.971Z,8.52
2022-10-26T01:21:23.835Z,10.02
2022-10-26T01:24:14.887Z,8.77
2022-10-26T01:27:01.154Z,9.65
2022-10-26T01:30:05.515Z,9.18
2022-10-26T01:32:56.787Z,10.02
2022-10-26T01:35:23.532Z,8.70
2022-10-26T01:38:24.857Z,9.50
2022-10-26T01:40:59.581Z,9.77
2022-10-26T01:43:31.936Z,9.73
2022-10-26T01:45:58.769Z,9.57
2022-10-26T01:48:27.507Z,8.48
2022-10-26T01:50:56.258Z,9.27
2022-10-26T01:53:25.816Z,8.63
2022-10-26T01:55:54.300Z,9.77
2022-10-26T01:58:20.951Z,9.55
2022-10-26T02:01:01.105Z,9.68
2022-10-26T02:03:44.439Z,9.48
2022-10-26T02:06:25.554Z,9.02
2022-10-26T02:09:02.921Z,8.75
2022-10-26T02:11:41.532Z,8.27
2022-10-26T02:14:20.757Z,8.70
2022-10-26T02:16:56.344Z,9.75
2022-10-26T02:19:47.261Z,9.65
2022-10-26T02:22:48.269Z,9.75
2022-10-26T02:25:27.652Z,10.23
2022-10-26T02:27:59.200Z,9.05
2022-10-26T02:30:26.208Z,8.77
2022-10-26T02:32:56.544Z,8.27
2022-10-26T02:35:28.779Z,8.63
2022-10-26T02:37:58.831Z,9.45
2022-10-26T02:40:27.947Z,8.00
2022-10-26T02:42:57.789Z,9.57
2022-10-26T02:45:37.437Z,9.77
2022-10-26T02:48:04.876Z,9.38
2022-10-26T02:51:10.045Z,8.95
2022-10-26T02:53:54.786Z,8.45
2022-10-26T02:56:31.037Z,9.52
2022-10-26T02:59:03.654Z,8.30
2022-10-26T03:01:32.594Z,8.50
2022-10-26T03:04:00.412Z,8.25
2022-10-26T03:06:27.418Z,9.18
2022-10-26T03:08:54.927Z,8.32
2022-10-26T03:11:21.714Z,8.57
2022-10-26T03:13:48.487Z,9.07
2022-10-26T03:16:15.224Z,8.35
2022-10-26T03:18:41.967Z,9.38
2022-10-26T03:21:08.821Z,7.88
2022-10-26T03:23:35.534Z,8.05
2022-10-26T03:26:02.333Z,7.97
2022-10-26T03:28:29.430Z,8.65
2022-10-26T03:30:56.230Z,9.68
2022-10-26T03:33:25.684Z,7.97
2022-10-26T03:35:57.011Z,8.90
2022-10-26T03:38:24.122Z,7.90
2022-10-26T03:40:50.978Z,8.05
2022-10-26T03:43:18.154Z,8.32
2022-10-26T03:45:45.575Z,8.93
2022-10-26T03:48:12.301Z,8.15
2022-10-26T03:50:39.195Z,8.48
2022-10-26T03:53:06.286Z,9.18
2022-10-26T03:55:33.250Z,8.65
2022-10-26T03:58:00.269Z,8.98
2022-10-26T04:00:27.067Z,8.63
2022-10-26T04:02:58.916Z,8.63
2022-10-26T04:05:28.118Z,8.52
2022-10-26T04:07:56.655Z,8.90
2022-10-26T04:10:25.505Z,8.95
2022-10-26T04:12:52.551Z,8.32
2022-10-26T04:15:20.340Z,9.80
2022-10-26T04:17:47.588Z,8.30
2022-10-26T04:20:15.274Z,7.65
2022-10-26T04:22:42.048Z,8.73
2022-10-26T04:25:10.463Z,8.40
2022-10-26T04:27:38.295Z,7.75
2022-10-26T04:30:08.178Z,8.68
2022-10-26T04:32:34.922Z,7.75
2022-10-26T04:35:01.587Z,8.40
2022-10-26T04:37:28.268Z,7.47
2022-10-26T04:39:54.929Z,8.30
2022-10-26T04:42:21.688Z,8.48
2022-10-26T04:44:48.282Z,8.30
2022-10-26T04:47:15.028Z,9.73
2022-10-26T04:49:41.694Z,8.77
2022-10-26T04:52:08.417Z,8.90
2022-10-26T04:54:35.231Z,7.80
2022-10-26T04:57:02.476Z,8.85
2022-10-26T04:59:29.173Z,8.57
2022-10-26T05:01:55.961Z,8.07
2022-10-26T05:04:22.731Z,8.18
2022-10-26T05:06:49.358Z,9.07
2022-10-26T05:09:16.028Z,7.82
2022-10-26T05:11:42.874Z,9.10
2022-10-26T05:14:09.756Z,8.45
2022-10-26T05:16:36.387Z,8.38
2022-10-26T05:19:03.171Z,8.60
2022-10-26T05:21:30.927Z,8.35
2022-10-26T05:23:57.677Z,8.07
2022-10-26T05:26:24.798Z,8.15
2022-10-26T05:28:52.142Z,7.18
2022-10-26T05:31:20.078Z,8.60
2022-10-26T05:33:51.225Z,8.40
2022-10-26T05:36:18.730Z,8.65
2022-10-26T05:38:45.772Z,9.23
2022-10-26T05:41:12.648Z,8.90
2022-10-26T05:43:39.459Z,8.75
2022-10-26T05:46:06.265Z,8.50
2022-10-26T05:48:33.051Z,8.70
2022-10-26T05:51:01.363Z,7.95
2022-10-26T05:53:28.696Z,7.45
2022-10-26T05:55:56.690Z,9.75
2022-10-26T05:58:23.705Z,7.85
2022-10-26T06:01:26.691Z,7.93
2022-10-26T06:04:02.509Z,8.13
2022-10-26T06:06:38.883Z,8.85
2022-10-26T06:09:06.020Z,9.32
2022-10-26T06:11:33.119Z,8.40
2022-10-26T06:14:01.193Z,9.30
2022-10-26T06:16:47.589Z,8.88
2022-10-26T06:19:26.241Z,7.95
2022-10-26T06:22:08.869Z,10.00
2022-10-26T06:24:58.970Z,8.77
2022-10-26T06:27:42.982Z,8.48
2022-10-26T06:30:12.072Z,8.80
2022-10-26T06:32:46.339Z,8.40
2022-10-26T06:35:56.523Z,7.63
2022-10-26T06:38:24.139Z,8.25
2022-10-26T06:40:55.294Z,7.65
2022-10-26T06:43:28.029Z,8.38
2022-10-26T06:46:33.594Z,8.30
2022-10-26T06:49:22.323Z,7.00
2022-10-26T06:52:07.241Z,7.38
2022-10-26T06:54:52.624Z,8.00
2022-10-26T06:57:22.213Z,8.02
2022-10-26T07:00:01.849Z,7.18
2022-10-26T07:02:29.240Z,8.30
2022-10-26T07:04:56.165Z,7.65
2022-10-26T07:07:29.550Z,8.80
2022-10-26T07:09:56.556Z,8.32
2022-10-26T07:12:23.372Z,9.25
2022-10-26T07:14:50.091Z,8.43
2022-10-26T07:17:17.065Z,8.98
2022-10-26T07:19:44.812Z,9.25
2022-10-26T07:22:12.113Z,9.38
2022-10-26T07:24:39.998Z,10.85
2022-10-26T07:27:06.829Z,10.80
2022-10-26T07:29:35.261Z,10.18
2022-10-26T07:32:01.985Z,11.52
2022-10-26T07:34:28.643Z,10.70
2022-10-26T07:36:55.314Z,9.70
2022-10-26T07:39:21.981Z,10.70
2022-10-26T07:41:48.663Z,11.25
2022-10-26T07:44:15.281Z,10.93
2022-10-26T07:46:42.015Z,10.70
2022-10-26T07:49:08.857Z,10.60
2022-10-26T07:51:35.551Z,10.02
2022-10-26T07:54:02.310Z,10.20
2022-10-26T07:56:29.267Z,11.07
2022-10-26T07:58:56.466Z,11.23
2022-10-26T08:01:23.245Z,9.93
2022-10-26T08:03:54.597Z,11.68
2022-10-26T08:06:22.491Z,11.07
2022-10-26T08:08:50.072Z,10.43
2022-10-26T08:11:17.636Z,10.90
2022-10-26T08:13:44.555Z,11.13
2022-10-26T08:16:11.858Z,9.77
2022-10-26T08:18:38.905Z,11.18
2022-10-26T08:21:11.272Z,10.10
2022-10-26T08:23:39.286Z,10.48
2022-10-26T08:26:06.422Z,11.05
2022-10-26T08:28:33.583Z,9.82
2022-10-26T08:31:00.321Z,10.48
2022-10-26T08:33:27.186Z,10.93
2022-10-26T08:36:05.039Z,10.18
2022-10-26T08:41:07.783Z,9.20
2022-10-26T08:43:52.232Z,10.00
2022-10-26T08:46:27.579Z,10.25
2022-10-26T08:48:58.281Z,10.30
2022-10-26T08:51:30.500Z,9.52
2022-10-26T08:54:01.704Z,9.70
2022-10-26T08:56:59.153Z,10.20
2022-10-26T08:59:40.374Z,8.85
2022-10-26T09:02:13.458Z,8.80
2022-10-26T09:04:40.668Z,9.15
2022-10-26T09:07:19.489Z,8.32
2022-10-26T09:10:20.669Z,9.02
2022-10-26T09:13:02.961Z,9.27
2022-10-26T09:15:48.318Z,9.73
2022-10-26T09:18:42.461Z,8.93
2022-10-26T09:21:18.848Z,8.70
2022-10-26T09:23:57.642Z,10.10
2022-10-26T09:26:42.044Z,10.55
2022-10-26T09:29:13.599Z,9.52
2022-10-26T09:31:44.453Z,9.68
2022-10-26T09:34:35.943Z,9.18
2022-10-26T09:37:16.002Z,9.25
2022-10-26T09:39:51.751Z,9.55
2022-10-26T09:42:27.630Z,9.48
2022-10-26T09:45:01.404Z,9.77
2022-10-26T09:47:38.076Z,10.40
2022-10-26T09:50:27.256Z,10.05
2022-10-26T09:52:53.926Z,10.48
2022-10-26T09:55:23.449Z,10.48
2022-10-26T09:57:53.632Z,10.60
2022-10-26T10:00:22.725Z,9.68
2022-10-26T10:02:58.114Z,9.80
2022-10-26T10:08:24.067Z,10.05
2022-10-26T10:11:12.514Z,10.15
2022-10-26T10:13:41.165Z,8.98
2022-10-26T10:16:20.920Z,9.55
2022-10-26T10:19:21.442Z,9.30
2022-10-26T10:21:53.953Z,8.90
2022-10-26T10:24:32.575Z,9.45
2022-10-26T10:27:17.573Z,9.88
2022-10-26T10:29:45.510Z,8.93
2022-10-26T10:32:23.044Z,9.35
2022-10-26T10:34:55.938Z,10.10
2022-10-26T10:37:30.378Z,9.38
2022-10-26T10:40:19.685Z,9.48
2022-10-26T10:42:47.874Z,9.18
2022-10-26T10:45:24.414Z,8.77
2022-10-26T10:48:12.385Z,9.13
2022-10-26T10:50:51.060Z,8.77
2022-10-26T10:53:59.545Z,8.43
2022-10-26T10:56:35.671Z,8.05
2022-10-26T10:59:08.654Z,8.18
2022-10-26T11:01:41.053Z,8.70
2022-10-26T11:04:30.359Z,8.60
2022-10-26T11:07:01.206Z,8.75
2022-10-26T11:09:31.407Z,7.60
2022-10-26T11:12:13.861Z,8.02
2022-10-26T11:14:47.604Z,7.47
2022-10-26T11:17:24.142Z,8.65
2022-10-26T11:20:01.745Z,8.15
2022-10-26T11:22:44.771Z,7.55
2022-10-26T11:25:17.126Z,6.90
2022-10-26T11:27:49.515Z,8.40
2022-10-26T11:30:26.554Z,7.32
2022-10-26T11:33:18.256Z,6.20
2022-10-26T11:36:05.083Z,7.35
2022-10-26T11:38:46.524Z,7.43
2022-10-26T11:41:48.557Z,7.32
2022-10-26T11:44:21.798Z,7.55
2022-10-26T11:46:55.445Z,6.68
2022-10-26T11:49:37.813Z,6.38
2022-10-26T11:52:25.213Z,6.47
2022-10-26T11:54:58.538Z,5.05
2022-10-26T11:57:28.148Z,7.35
2022-10-26T12:00:00.476Z,6.43
2022-10-26T12:02:27.671Z,6.53
2022-10-26T12:05:08.153Z,5.70
2022-10-26T12:07:39.145Z,5.80
2022-10-26T12:10:14.197Z,5.57
2022-10-26T12:12:55.717Z,5.00
2022-10-26T12:16:02.135Z,5.70
2022-10-26T12:18:56.417Z,5.65
2022-10-26T12:21:29.173Z,6.13
2022-10-26T12:24:00.373Z,5.75
2022-10-26T12:29:02.822Z,3.30
2022-10-26T12:31:33.354Z,3.20
2022-10-26T12:34:00.573Z,3.20
2022-10-26T12:36:55.359Z,3.13
2022-10-26T12:39:40.305Z,3.30
2022-10-26T12:42:10.054Z,3.75
2022-10-26T12:44:40.447Z,3.65
2022-10-26T12:47:08.814Z,2.85
2022-10-26T12:50:00.853Z,3.35
2022-10-26T12:52:47.191Z,2.65
2022-10-26T12:55:38.396Z,2.60
2022-10-26T12:58:50.808Z,2.75
2022-10-26T13:01:42.188Z,2.75
2022-10-26T13:04:22.934Z,2.60
2022-10-26T13:07:19.349Z,2.22
2022-10-26T13:10:06.292Z,2.53
2022-10-26T13:12:50.116Z,2.70
2022-10-26T13:15:31.668Z,2.42
2022-10-26T13:18:01.073Z,2.85
2022-10-26T13:20:30.406Z,2.42
2022-10-26T13:22:57.477Z,2.75
2022-10-26T13:25:27.783Z,2.42
2022-10-26T13:28:07.763Z,2.20
2022-10-26T13:30:34.362Z,2.40
2022-10-26T13:33:02.832Z,2.30
2022-10-26T13:35:31.868Z,2.17
2022-10-26T13:38:03.028Z,1.88
2022-10-26T13:40:30.222Z,2.42
2022-10-26T13:43:00.401Z,2.13
2022-10-26T13:45:54.528Z,2.25
2022-10-26T13:48:36.952Z,2.33
2022-10-26T13:51:13.615Z,2.00
2022-10-26T13:53:55.442Z,2.10
2022-10-26T13:56:22.195Z,2.00
2022-10-26T13:58:54.896Z,2.15
2022-10-26T14:01:24.564Z,2.70
2022-10-26T14:03:51.816Z,2.22
2022-10-26T14:06:37.363Z,2.55
2022-10-26T14:09:11.899Z,2.13
2022-10-26T14:11:49.766Z,2.28
2022-10-26T14:14:32.121Z,1.50
2022-10-26T14:16:59.824Z,2.13
2022-10-26T14:19:30.107Z,2.15
2022-10-26T14:21:57.632Z,1.95
2022-10-26T14:24:46.755Z,2.20
2022-10-26T14:29:49.850Z,2.03
2022-10-26T14:32:31.988Z,2.28
2022-10-26T14:34:58.883Z,1.88
2022-10-26T14:37:41.968Z,2.15
2022-10-26T14:40:23.171Z,1.95
2022-10-26T14:42:54.862Z,2.15
2022-10-26T14:45:47.710Z,3.00
2022-10-26T14:48:35.506Z,2.38
2022-10-26T14:51:11.136Z,2.05
2022-10-26T14:53:47.793Z,2.42
2022-10-26T14:56:25.730Z,2.50
2022-10-26T14:58:53.609Z,2.53
2022-10-26T15:01:23.421Z,2.17
2022-10-26T15:03:56.017Z,2.28
2022-10-26T15:06:28.918Z,2.47
2022-10-26T15:08:57.944Z,2.95
2022-10-26T15:11:28.672Z,1.95
2022-10-26T15:13:57.213Z,2.63
2022-10-26T15:16:27.859Z,3.00
2022-10-26T15:19:01.444Z,2.05
2022-10-26T15:21:33.931Z,2.10
2022-10-26T15:24:02.138Z,2.10
2022-10-26T15:26:29.449Z,2.30
2022-10-26T15:28:56.229Z,2.58
2022-10-26T15:31:32.005Z,2.15
2022-10-26T15:34:01.809Z,2.25
2022-10-26T15:36:30.436Z,2.42
2022-10-26T15:38:58.897Z,2.30
2022-10-26T15:41:33.037Z,2.60
2022-10-26T15:44:01.489Z,3.00
2022-10-26T15:46:33.686Z,2.92
2022-10-26T15:49:03.958Z,2.10
2022-10-26T15:51:30.839Z,2.38
2022-10-26T15:53:58.822Z,2.63
2022-10-26T15:56:26.441Z,2.40
2022-10-26T15:58:54.655Z,2.25
2022-10-26T16:01:26.771Z,2.17
2022-10-26T16:03:54.675Z,2.58
2022-10-26T16:06:30.758Z,2.45
2022-10-26T16:09:00.454Z,2.38
2022-10-26T16:11:28.317Z,2.80
2022-10-26T16:13:57.187Z,3.00
2022-10-26T16:16:27.052Z,2.83
2022-10-26T16:19:11.713Z,3.10
2022-10-26T16:21:42.607Z,2.75
2022-10-26T16:24:09.923Z,2.60
2022-10-26T16:26:36.628Z,3.08
2022-10-26T16:29:03.434Z,3.08
2022-10-26T16:31:30.107Z,3.15
2022-10-26T16:34:00.257Z,3.58
2022-10-26T16:36:29.940Z,3.17
2022-10-26T16:38:56.725Z,2.60
2022-10-26T16:43:56.414Z,3.40
2022-10-26T16:46:23.194Z,3.50
2022-10-26T16:48:51.303Z,3.47
2022-10-26T16:51:29.297Z,3.70
2022-10-26T16:53:57.233Z,4.10
2022-10-26T16:56:27.077Z,3.40
2022-10-26T16:58:54.086Z,3.15
2022-10-26T17:01:21.779Z,2.92
2022-10-26T17:03:50.543Z,3.13
2022-10-26T17:06:18.032Z,2.80
2022-10-26T17:08:45.006Z,2.90
2022-10-26T17:11:14.872Z,2.88
2022-10-26T17:13:42.080Z,2.85
2022-10-26T17:16:15.631Z,2.75
2022-10-26T17:18:43.495Z,2.72
2022-10-26T17:21:11.884Z,2.72
2022-10-26T17:23:38.749Z,2.47
2022-10-26T17:26:07.585Z,3.35
2022-10-26T17:28:34.649Z,3.65
2022-10-26T17:31:05.783Z,3.17
2022-10-26T17:33:34.868Z,3.33
2022-10-26T17:36:02.671Z,2.88
2022-10-26T17:38:34.197Z,3.03
2022-10-26T17:43:33.214Z,2.92
2022-10-26T17:46:20.705Z,2.70
2022-10-26T17:48:47.398Z,3.25
2022-10-26T17:51:19.061Z,2.88
2022-10-26T17:53:50.252Z,3.08
2022-10-26T17:56:20.945Z,2.83
2022-10-26T17:58:52.972Z,3.20
2022-10-26T18:01:20.244Z,3.15
2022-10-26T18:03:47.198Z,3.30
2022-10-26T18:06:14.302Z,3.20
2022-10-26T18:08:41.159Z,3.75
2022-10-26T18:11:13.071Z,2.90
2022-10-26T18:13:39.850Z,3.15
2022-10-26T18:16:12.142Z,3.03
2022-10-26T18:18:41.299Z,3.00
2022-10-26T18:21:10.894Z,2.90
2022-10-26T18:23:38.373Z,3.15
2022-10-26T18:26:11.381Z,2.95
2022-10-26T18:28:40.363Z,2.83
2022-10-26T18:31:09.086Z,2.70
2022-10-26T18:33:39.139Z,2.63
2022-10-26T18:36:09.355Z,3.70
2022-10-26T18:38:36.938Z,2.85
2022-10-26T18:41:04.403Z,3.10
2022-10-26T18:43:31.129Z,3.22
2022-10-26T18:46:21.469Z,2.72
2022-10-26T18:48:52.511Z,2.97
2022-10-26T18:51:22.683Z,3.38
2022-10-26T18:53:51.235Z,3.45
2022-10-26T18:56:20.251Z,3.20
2022-10-26T18:58:51.335Z,3.50
2022-10-26T19:01:24.095Z,2.75
2022-10-26T19:04:01.468Z,3.05
2022-10-26T19:06:31.408Z,3.38
2022-10-26T19:08:58.905Z,3.50
2022-10-26T19:11:27.331Z,3.35
2022-10-26T19:13:54.341Z,3.55
2022-10-26T19:16:44.761Z,7.68
2022-10-26T19:19:10.885Z,3.58
2022-10-26T19:21:37.787Z,4.53
2022-10-26T19:24:05.039Z,4.40
2022-10-26T19:26:38.887Z,4.38
2022-10-26T19:29:15.180Z,4.18
2022-10-26T19:31:43.704Z,4.53
2022-10-26T19:34:11.787Z,4.43
2022-10-26T19:36:39.571Z,4.47
2022-10-26T19:39:07.494Z,5.03
2022-10-26T19:41:34.157Z,4.20
2022-10-26T19:44:01.337Z,4.70
2022-10-26T19:46:29.696Z,4.63
2022-10-26T19:49:01.650Z,4.97
2022-10-26T19:51:30.493Z,4.70
2022-10-26T19:54:03.125Z,4.47
2022-10-26T19:56:31.825Z,6.15
2022-10-26T19:58:58.563Z,4.80
2022-10-26T20:01:25.399Z,4.43
2022-10-26T20:03:52.451Z,4.90
2022-10-26T20:06:19.459Z,4.47
2022-10-26T20:08:48.782Z,5.40
2022-10-26T20:11:17.145Z,5.55
2022-10-26T20:13:45.956Z,5.68
2022-10-26T20:16:13.853Z,6.50
2022-10-26T20:18:44.124Z,5.25
2022-10-26T20:21:17.303Z,5.65
2022-10-26T20:23:44.943Z,5.88
2022-10-26T20:26:18.323Z,5.05
2022-10-26T20:28:49.152Z,6.57
2022-10-26T20:31:16.336Z,5.70
2022-10-26T20:33:43.110Z,5.07
2022-10-26T20:36:10.247Z,5.05
2022-10-26T20:38:39.504Z,5.85
2022-10-26T20:41:10.271Z,5.90
2022-10-26T20:43:39.603Z,5.28
2022-10-26T20:46:33.052Z,5.00
2022-10-26T20:48:59.956Z,5.70
2022-10-26T20:51:40.047Z,5.47
2022-10-26T20:54:17.667Z,5.82
2022-10-26T20:56:45.267Z,5.55
2022-10-26T20:59:28.036Z,5.72
2022-10-26T21:01:54.888Z,5.65
2022-10-26T21:04:21.559Z,5.43
2022-10-26T21:06:48.353Z,5.93
2022-10-26T21:09:15.110Z,5.88
2022-10-26T21:11:41.777Z,5.90
2022-10-26T21:14:08.666Z,7.00
2022-10-26T21:16:35.592Z,6.60
2022-10-26T21:19:04.853Z,6.88
2022-10-26T21:21:31.725Z,5.72
2022-10-26T21:23:58.456Z,6.07
2022-10-26T21:26:25.210Z,6.32
2022-10-26T21:28:51.877Z,6.82
2022-10-26T21:31:21.115Z,6.13
2022-10-26T21:33:48.152Z,6.43
2022-10-26T21:36:15.465Z,6.20
2022-10-26T21:38:44.344Z,6.70
2022-10-26T21:41:16.098Z,5.97
2022-10-26T21:43:46.016Z,6.25
2022-10-26T21:46:13.262Z,6.13
2022-10-26T21:48:41.090Z,6.22
2022-10-26T21:51:13.634Z,6.30
2022-10-26T21:53:40.912Z,7.00
2022-10-26T21:56:19.373Z,6.35
2022-10-26T21:58:46.786Z,6.53
2022-10-26T22:01:16.390Z,6.60
2022-10-26T22:03:45.550Z,6.20
2022-10-26T22:06:14.785Z,6.22
2022-10-26T22:08:41.756Z,7.30
2022-10-26T22:11:15.167Z,6.75
2022-10-26T22:13:43.501Z,6.97
2022-10-26T22:16:20.905Z,6.68
2022-10-26T22:18:48.801Z,7.22
2022-10-26T22:21:16.999Z,7.45
2022-10-26T22:23:44.427Z,6.93
2022-10-26T22:26:20.239Z,7.93
2022-10-26T22:28:49.685Z,7.07
2022-10-26T22:31:19.647Z,7.72
2022-10-26T22:33:51.896Z,9.10
2022-10-26T22:36:18.764Z,7.50
2022-10-26T22:38:45.472Z,7.90
2022-10-26T22:41:12.327Z,7.68
2022-10-26T22:43:39.126Z,7.45
2022-10-26T22:46:12.802Z,8.25
2022-10-26T22:48:41.203Z,8.27
2022-10-26T22:51:10.833Z,7.55
2022-10-26T22:53:37.700Z,7.90
2022-10-26T22:56:06.547Z,7.35
2022-10-26T22:58:37.187Z,7.47
2022-10-26T23:01:13.215Z,8.18
2022-10-26T23:03:40.193Z,7.57
2022-10-26T23:06:09.445Z,7.03
2022-10-26T23:08:36.229Z,7.50
2022-10-26T23:11:05.497Z,7.10
2022-10-26T23:13:32.187Z,7.65
2022-10-26T23:16:05.756Z,6.93
2022-10-26T23:18:33.151Z,7.43
2022-10-26T23:20:59.962Z,7.38
2022-10-26T23:23:27.078Z,7.00
2022-10-26T23:25:53.909Z,7.80
2022-10-26T23:28:20.903Z,8.00
2022-10-26T23:30:47.914Z,7.75
2022-10-26T23:33:14.634Z,7.90
2022-10-26T23:35:41.546Z,7.43
2022-10-26T23:40:39.840Z,7.30
2022-10-26T23:43:06.518Z,7.47
2022-10-26T23:45:33.305Z,8.15
2022-10-26T23:48:00.195Z,7.97
2022-10-26T23:50:26.796Z,8.38
2022-10-26T23:52:53.488Z,7.68
2022-10-26T23:55:20.154Z,9.32
2022-10-26T23:57:46.902Z,8.77
